Time;durP1;ratioP1;P1;durP2;ratioP2;P2;SDS_P1;SDS_P2;PMS_P1;PMS_P2;Temp;Humidity;BMP_temperature;BMP_pressure;BME280_temperature;BME280_humidity;BME280_pressure;Samples;Min_cycle;Max_cycle;Signal;HPM_P1;HPM_P2
2022/12/13 00:00:56;;;;;;;9.23;5.23;;;;;;;-2.22;100.00;100471.66;4937957;29;20046;-83
2022/12/13 00:03:22;;;;;;;10.17;5.50;;;;;;;-2.18;100.00;100470.94;4898417;29;20052;-83
2022/12/13 00:05:49;;;;;;;9.30;5.47;;;;;;;-2.15;100.00;100473.59;4937858;29;20055;-84
2022/12/13 00:08:16;;;;;;;10.20;5.10;;;;;;;-2.23;100.00;100469.91;4922423;29;20047;-83
2022/12/13 00:10:47;;;;;;;10.03;5.53;;;;;;;-2.30;100.00;100479.19;4938784;29;20068;-83
2022/12/13 00:13:14;;;;;;;8.97;5.00;;;;;;;-2.37;100.00;100469.50;4934235;29;20051;-83
2022/12/13 00:15:40;;;;;;;12.50;5.93;;;;;;;-2.33;100.00;100466.19;4918233;29;20059;-83
2022/12/13 00:18:09;;;;;;;9.67;5.13;;;;;;;-2.28;100.00;100467.19;4922379;29;20042;-83
2022/12/13 00:20:39;;;;;;;10.00;5.43;;;;;;;-2.27;100.00;100474.13;4937181;29;20098;-83
2022/12/13 00:23:05;;;;;;;10.07;5.93;;;;;;;-2.22;100.00;100470.78;4924888;29;20043;-83
2022/12/13 00:25:32;;;;;;;10.30;5.17;;;;;;;-2.28;100.00;100464.59;4938015;29;20054;-84
2022/12/13 00:27:59;;;;;;;9.83;5.30;;;;;;;-2.28;100.00;100464.59;4919890;29;20043;-84
2022/12/13 00:30:30;;;;;;;9.00;4.70;;;;;;;-2.29;100.00;100457.66;4928471;29;20134;-83
2022/12/13 00:32:57;;;;;;;10.73;5.07;;;;;;;-2.13;100.00;100460.69;4938954;29;20795;-83
2022/12/13 00:35:24;;;;;;;11.17;5.67;;;;;;;-2.14;100.00;100458.94;4924194;29;20047;-83
2022/12/13 00:37:51;;;;;;;8.63;4.53;;;;;;;-2.26;100.00;100451.72;4937359;29;20047;-84
2022/12/13 00:40:18;;;;;;;7.33;4.87;;;;;;;-2.26;100.00;100449.13;4951170;29;20079;-83
2022/12/13 00:42:44;;;;;;;9.37;5.20;;;;;;;-2.23;100.00;100454.38;4908753;29;20414;-83
2022/12/13 00:45:11;;;;;;;9.20;5.13;;;;;;;-2.18;100.00;100449.34;4937880;29;20044;-83
2022/12/13 00:47:39;;;;;;;8.90;5.20;;;;;;;-2.22;100.00;100455.25;4936820;29;20536;-83
2022/12/13 00:50:06;;;;;;;10.63;4.97;;;;;;;-2.16;100.00;100452.84;4938517;29;20065;-83
2022/12/13 00:52:33;;;;;;;9.13;4.77;;;;;;;-2.25;100.00;100460.34;4920696;29;20047;-84
2022/12/13 00:55:00;;;;;;;10.47;5.20;;;;;;;-2.19;100.00;100452.75;4952545;28;20142;-83
2022/12/13 00:57:26;;;;;;;10.87;5.87;;;;;;;-2.21;100.00;100452.72;4933127;29;20494;-83
2022/12/13 01:00:19;;;;;;;10.77;6.00;;;;;;;-2.19;100.00;100450.16;4936643;29;20114;-84
2022/12/13 01:02:45;;;;;;;9.73;5.57;;;;;;;-2.28;100.00;100445.59;4932194;29;20255;-82
2022/12/13 01:05:12;;;;;;;9.70;5.00;;;;;;;-2.28;100.00;100445.59;4932666;29;20090;-84
2022/12/13 01:07:43;;;;;;;8.20;5.13;;;;;;;-2.27;100.00;100452.53;5002327;23;20047;-79
2022/12/13 01:10:11;;;;;;;10.73;5.97;;;;;;;-2.35;100.00;100448.88;4972638;28;20101;-78
2022/12/13 01:12:38;;;;;;;11.60;5.73;;;;;;;-2.25;100.00;100456.06;4952495;28;20047;-78
2022/12/13 01:15:05;;;;;;;8.43;5.17;;;;;;;-2.23;100.00;100456.09;4961979;28;20067;-78
2022/12/13 01:17:35;;;;;;;9.63;5.23;;;;;;;-2.20;100.00;100443.22;4953960;28;20050;-78
2022/12/13 01:20:02;;;;;;;10.13;5.70;;;;;;;-2.19;100.00;100444.97;4937021;29;20043;-78
2022/12/13 01:22:29;;;;;;;10.70;6.33;;;;;;;-2.18;100.00;100446.75;4936530;29;20047;-79
2022/12/13 01:24:56;;;;;;;9.60;5.63;;;;;;;-2.24;100.00;100439.69;4947552;28;20040;-79
2022/12/13 01:27:22;;;;;;;10.33;5.33;;;;;;;-2.25;100.00;100442.25;4938141;29;20039;-79
2022/12/13 01:29:49;;;;;;;9.43;5.10;;;;;;;-2.24;100.00;100444.00;4932340;29;20492;-79
2022/12/13 01:32:15;;;;;;;11.60;6.47;;;;;;;-2.09;100.00;100444.41;4912348;29;20098;-78
2022/12/13 01:34:42;;;;;;;13.80;6.67;;;;;;;-1.93;100.00;100436.22;4969725;28;20043;-78
2022/12/13 01:37:09;;;;;;;11.27;6.30;;;;;;;-2.03;100.00;100441.97;4953692;28;20039;-79
2022/12/13 01:39:36;;;;;;;17.13;7.70;;;;;;;-2.05;100.00;100439.34;4939490;29;20035;-79
2022/12/13 01:42:03;;;;;;;11.37;6.20;;;;;;;-2.10;100.00;100440.94;4945582;29;20062;-79
2022/12/13 01:44:57;;;;;;;10.50;5.33;;;;;;;-2.06;100.00;100444.47;4955763;28;20047;-78
2022/12/13 01:47:29;;;;;;;9.77;5.50;;;;;;;-2.24;100.00;100447.47;4938137;29;20035;-79
2022/12/13 01:49:58;;;;;;;12.17;6.07;;;;;;;-2.22;100.00;100447.50;4964940;28;20094;-78
2022/12/13 01:52:27;;;;;;;11.50;6.23;;;;;;;-2.23;100.00;100443.16;4959163;28;20047;-78
2022/12/13 01:54:55;;;;;;;11.63;5.10;;;;;;;-2.19;100.00;100440.69;4954206;29;20131;-80
2022/12/13 01:57:30;;;;;;;9.53;5.33;;;;;;;-2.30;100.00;100439.50;4939245;29;20063;-78
2022/12/13 01:59:57;;;;;;;9.47;5.27;;;;;;;-2.30;100.00;100445.56;4953430;29;20106;-78
2022/12/13 02:02:23;;;;;;;9.20;5.60;;;;;;;-2.25;100.00;100452.59;4967055;28;20042;-78
2022/12/13 02:05:03;;;;;;;10.97;5.40;;;;;;;-2.25;100.00;100444.84;4944242;29;20058;-79
2022/12/13 02:07:32;;;;;;;13.10;6.60;;;;;;;-2.21;100.00;100442.34;4950560;29;20073;-79
2022/12/13 02:10:00;;;;;;;11.87;6.30;;;;;;;-2.18;100.00;100446.75;4948120;28;20067;-79
2022/12/13 02:12:29;;;;;;;12.93;6.40;;;;;;;-2.21;100.00;100439.75;4943090;28;20073;-79
2022/12/13 02:14:58;;;;;;;11.80;6.40;;;;;;;-2.21;100.00;100439.75;4943259;29;20137;-78
2022/12/13 02:17:38;;;;;;;10.37;5.90;;;;;;;-2.21;100.00;100437.19;4954214;28;20043;-80
2022/12/13 02:20:10;;;;;;;14.00;6.07;;;;;;;-2.17;100.00;100436.44;4937923;29;20576;-80
2022/12/13 02:23:16;;;;;;;12.13;6.83;;;;;;;-2.23;100.00;100443.16;4953480;28;20479;-79
2022/12/13 02:25:58;;;;;;;13.07;6.40;;;;;;;-2.12;100.00;100447.78;4949386;28;20050;-79
2022/12/13 02:29:01;;;;;;;12.33;6.83;;;;;;;-2.24;100.00;100446.59;4958307;28;20047;-79
2022/12/13 02:31:31;;;;;;;12.73;6.80;;;;;;;-2.20;100.00;100441.50;4941077;29;20067;-78
2022/12/13 02:33:58;;;;;;;12.07;6.00;;;;;;;-2.22;100.00;100435.44;4951597;29;20143;-78
2022/12/13 02:36:29;;;;;;;12.83;7.03;;;;;;;-2.27;100.00;100434.41;4953780;29;20090;-78
2022/12/13 02:39:13;;;;;;;11.30;6.03;;;;;;;-2.32;100.00;100436.91;4934925;29;20039;-80
2022/12/13 02:41:46;;;;;;;15.60;7.10;;;;;;;-2.25;100.00;100437.06;4957571;28;20035;-78
2022/12/13 02:44:18;;;;;;;15.00;6.32;;;;;;;-2.21;100.00;100434.59;4945351;29;20456;-79
2022/12/13 02:46:58;;;;;;;14.80;6.70;;;;;;;-2.20;100.00;100440.63;4946051;28;20039;-78
2022/12/13 02:49:28;;;;;;;11.33;6.10;;;;;;;-2.27;100.00;100437.91;4938265;29;20040;-78
2022/12/13 02:51:55;;;;;;;12.50;6.43;;;;;;;-2.18;100.00;100437.28;4941869;29;20051;-79
2022/12/13 02:54:22;;;;;;;12.83;7.07;;;;;;;-2.25;100.00;100437.06;4953171;29;20492;-78
2022/12/13 02:56:56;;;;;;;13.13;7.03;;;;;;;-2.24;100.00;100436.22;4933840;29;20099;-78
2022/12/13 02:59:28;;;;;;;13.55;6.95;;;;;;;-2.29;100.00;100429.19;4950486;29;20047;-78
2022/12/13 03:02:04;;;;;;;13.27;6.43;;;;;;;-2.30;100.00;100436.94;4944049;28;20380;-79
2022/12/13 03:06:28;;;;;;;14.43;7.47;;;;;;;-2.27;100.00;100430.16;4935958;29;20043;-80
2022/12/13 03:07:35;;;;;;;16.60;7.10;;;;;;;-2.31;100.00;100433.47;4954236;28;20054;-79
2022/12/13 03:10:09;;;;;;;17.60;9.70;;;;;;;-2.19;100.00;100434.63;4940484;28;20043;-78
2022/12/13 03:15:45;;;;;;;18.57;8.60;;;;;;;-2.24;100.00;100424.16;4953855;28;20094;-81
2022/12/13 03:18:15;;;;;;;15.82;8.40;;;;;;;-2.13;100.00;100432.22;4947404;29;20698;-78
2022/12/13 03:20:48;;;;;;;17.57;9.17;;;;;;;-2.15;100.00;100429.59;4950013;28;20082;-80
2022/12/13 03:23:16;;;;;;;19.67;10.47;;;;;;;-2.24;100.00;100426.75;4951042;28;20110;-79
2022/12/13 03:25:43;;;;;;;18.57;9.67;;;;;;;-2.28;100.00;100433.53;4951731;28;20039;-79
2022/12/13 03:28:11;;;;;;;19.90;10.73;;;;;;;-2.22;100.00;100425.06;4953486;29;20039;-83
2022/12/13 03:30:38;;;;;;;17.70;9.23;;;;;;;-2.28;100.00;100423.19;4925108;29;20044;-78
2022/12/13 03:33:05;;;;;;;23.30;11.27;;;;;;;-2.32;100.00;100425.66;4952913;29;20043;-79
2022/12/13 03:35:32;;;;;;;19.40;9.47;;;;;;;-2.16;100.00;100425.25;4936335;28;20070;-79
2022/12/13 03:38:10;;;;;;;16.00;9.17;;;;;;;-2.16;100.00;100417.50;4952694;29;20091;-79
2022/12/13 03:40:36;;;;;;;15.17;8.53;;;;;;;-2.13;100.00;100427.03;4957797;28;20059;-78
2022/12/13 03:43:04;;;;;;;27.97;11.40;;;;;;;-2.13;100.00;100417.56;4941759;29;20043;-78
2022/12/13 03:45:31;;;;;;;22.53;11.47;;;;;;;-2.19;100.00;100424.28;4940189;29;20042;-78
2022/12/13 03:47:58;;;;;;;26.47;10.97;;;;;;;-2.17;100.00;100423.50;4941552;28;20039;-79
2022/12/13 03:50:25;;;;;;;20.90;11.00;;;;;;;-2.11;100.00;100418.47;4935473;29;20047;-78
2022/12/13 03:53:00;;;;;;;23.33;11.07;;;;;;;-2.30;100.00;100416.22;4955699;28;20053;-78
2022/12/13 03:55:27;;;;;;;24.52;10.43;;;;;;;-2.25;100.00;100412.06;4948416;29;20528;-78
2022/12/13 03:57:54;;;;;;;23.03;10.93;;;;;;;-2.22;100.00;100411.25;4954728;28;20043;-79
2022/12/13 04:00:21;;;;;;;18.93;9.47;;;;;;;-2.29;100.00;100428.31;4944454;29;20107;-79
2022/12/13 04:02:48;;;;;;;20.57;11.17;;;;;;;-2.19;100.00;100424.28;4935380;29;20047;-79
2022/12/13 04:05:15;;;;;;;20.27;9.77;;;;;;;-2.20;100.00;100420.81;4968933;28;20126;-78
2022/12/13 04:07:42;;;;;;;21.03;11.23;;;;;;;-2.21;100.00;100415.59;4954529;28;20404;-78
2022/12/13 04:10:14;;;;;;;21.43;10.23;;;;;;;-2.30;100.00;100416.22;4962272;28;20066;-80
2022/12/13 04:15:38;;;;;;;25.73;11.83;;;;;;;-2.28;100.00;100412.84;4955442;28;20625;-81
2022/12/13 04:18:05;;;;;;;23.37;10.30;;;;;;;-2.30;100.00;100411.94;4961305;28;20039;-78
2022/12/13 04:20:32;;;;;;;18.60;10.30;;;;;;;-2.20;100.00;100407.00;4963920;28;20624;-80
2022/12/13 04:22:59;;;;;;;23.03;10.73;;;;;;;-2.26;100.00;100405.16;4940817;29;20039;-78
2022/12/13 04:25:26;;;;;;;22.17;10.97;;;;;;;-2.33;100.00;100405.81;4955331;29;20047;-80
2022/12/13 04:27:52;;;;;;;25.03;12.53;;;;;;;-2.29;100.00;100400.75;4941554;29;20043;-78
2022/12/13 04:30:19;;;;;;;22.47;11.03;;;;;;;-2.36;100.00;100401.41;4936969;29;20073;-78
2022/12/13 04:32:46;;;;;;;23.30;10.17;;;;;;;-2.28;100.00;100397.31;4948974;28;20046;-78
2022/12/13 04:35:12;;;;;;;30.07;12.17;;;;;;;-2.18;100.00;100397.59;4970998;28;20039;-78
2022/12/13 04:37:42;;;;;;;23.80;11.53;;;;;;;-2.25;100.00;100400.84;4941257;28;20070;-78
2022/12/13 04:40:09;;;;;;;26.13;11.47;;;;;;;-2.33;100.00;100405.81;4955010;28;20628;-79
2022/12/13 04:42:37;;;;;;;25.50;11.43;;;;;;;-2.38;100.00;100402.22;4938896;29;20043;-78
2022/12/13 04:45:04;;;;;;;24.97;12.53;;;;;;;-2.36;100.00;100397.94;4945985;28;20053;-78
2022/12/13 04:47:31;;;;;;;24.03;12.00;;;;;;;-2.37;100.00;100394.47;4931897;29;20067;-79
2022/12/13 04:49:57;;;;;;;21.70;10.73;;;;;;;-2.30;100.00;100395.53;4961607;28;20110;-79
2022/12/13 04:52:27;;;;;;;24.87;12.80;;;;;;;-2.31;100.00;100404.13;4933258;29;20047;-78
2022/12/13 04:54:54;;;;;;;24.50;11.73;;;;;;;-2.25;100.00;100409.47;4954342;28;20043;-78
2022/12/13 04:57:22;;;;;;;27.83;12.63;;;;;;;-2.31;100.00;100401.53;4967500;28;20051;-79
2022/12/13 04:59:48;;;;;;;23.63;12.87;;;;;;;-2.25;100.00;100404.31;4955611;29;20043;-81
2022/12/13 05:02:15;;;;;;;22.40;11.60;;;;;;;-2.09;100.00;100405.59;4936776;29;20043;-79
2022/12/13 05:04:49;;;;;;;;;;;;;;;-2.34;100.00;100404.94;4965658;28;20039;-79
2022/12/13 05:07:20;;;;;;;29.40;11.40;;;;;;;-2.33;100.00;100406.69;4959112;28;19950;-79
2022/12/13 05:09:47;;;;;;;26.43;13.10;;;;;;;-2.36;100.00;100414.34;4924477;29;20050;-78
2022/12/13 05:12:14;;;;;;;21.57;11.33;;;;;;;-2.36;100.00;100410.88;4951013;28;20476;-78
2022/12/13 05:14:53;;;;;;;22.30;12.50;;;;;;;-2.30;100.00;100418.81;4964561;28;20047;-78
2022/12/13 05:17:19;;;;;;;25.23;13.07;;;;;;;-2.32;100.00;100418.78;4960136;28;20039;-79
2022/12/13 05:19:46;;;;;;;24.47;11.90;;;;;;;-2.39;100.00;100411.69;4955340;28;20138;-79
2022/12/13 05:22:15;;;;;;;22.20;11.63;;;;;;;-2.40;100.00;100420.28;4940040;29;20036;-79
2022/12/13 05:24:46;;;;;;;27.03;12.67;;;;;;;-2.37;100.00;100414.31;4964965;28;20050;-80
2022/12/13 05:27:12;;;;;;;26.17;12.73;;;;;;;-2.34;100.00;100419.59;4951980;29;20419;-79
2022/12/13 05:29:58;;;;;;;23.97;11.33;;;;;;;-2.28;100.00;100420.59;4960090;28;20226;-79
2022/12/13 05:32:32;;;;;;;23.03;11.83;;;;;;;-2.30;100.00;100411.94;4924726;29;20035;-80
2022/12/13 05:35:14;;;;;;;23.43;12.20;;;;;;;-2.34;100.00;100422.16;4959283;28;20039;-79
2022/12/13 05:37:50;;;;;;;24.13;12.13;;;;;;;-2.21;100.00;100410.44;4938004;29;20070;-79
2022/12/13 05:40:30;;;;;;;24.00;11.67;;;;;;;-2.23;100.00;100420.75;4954561;28;20050;-81
2022/12/13 05:42:57;;;;;;;23.20;12.97;;;;;;;-2.33;100.00;100422.22;4935772;29;20051;-82
2022/12/13 05:45:28;;;;;;;27.63;13.57;;;;;;;-2.30;100.00;100411.94;4935144;29;20044;-78
2022/12/13 05:47:56;;;;;;;24.33;11.27;;;;;;;-2.30;100.00;100411.06;4949358;28;20043;-79
2022/12/13 05:50:23;;;;;;;25.30;13.90;;;;;;;-2.28;100.00;100420.59;4964558;28;20055;-79
2022/12/13 05:52:50;;;;;;;28.40;12.57;;;;;;;-2.23;100.00;100420.75;4942328;29;20039;-79
2022/12/13 05:55:16;;;;;;;28.03;11.87;;;;;;;-2.25;100.00;100421.53;4965807;28;20070;-79
2022/12/13 05:57:44;;;;;;;26.00;11.40;;;;;;;-2.28;100.00;100428.38;4942729;29;20176;-79
2022/12/13 06:00:17;;;;;;;25.40;14.17;;;;;;;-2.33;100.00;100432.56;4935075;29;20106;-80
2022/12/13 06:02:56;;;;;;;27.73;12.23;;;;;;;-2.36;100.00;100426.41;4945938;29;20039;-79
2022/12/13 06:05:27;;;;;;;24.07;12.87;;;;;;;-2.36;100.00;100426.41;4957481;29;20066;-79
2022/12/13 06:07:54;;;;;;;26.40;12.87;;;;;;;-2.36;100.00;100429.00;4946223;28;20043;-80
2022/12/13 06:10:23;;;;;;;25.87;12.40;;;;;;;-2.39;100.00;100434.97;4967639;28;20070;-79
2022/12/13 06:13:01;;;;;;;26.97;12.47;;;;;;;-2.24;100.00;100436.22;4959461;28;20040;-79
2022/12/13 06:15:47;;;;;;;27.63;14.23;;;;;;;-2.35;100.00;100423.00;4959786;29;20035;-80
2022/12/13 06:18:14;;;;;;;29.47;14.27;;;;;;;-2.32;100.00;100438.59;4943572;28;20113;-79
2022/12/13 06:20:41;;;;;;;30.50;13.27;;;;;;;-2.27;100.00;100435.31;4957196;28;20512;-79
2022/12/13 06:23:08;;;;;;;22.93;12.13;;;;;;;-2.37;100.00;100438.47;4957018;29;20047;-79
2022/12/13 06:25:37;;;;;;;21.53;12.00;;;;;;;-2.41;100.00;100438.34;4925651;29;20047;-80
2022/12/13 06:28:06;;;;;;;25.17;12.10;;;;;;;-2.41;100.00;100441.81;4951077;28;20069;-80
2022/12/13 06:30:32;;;;;;;30.37;14.20;;;;;;;-2.35;100.00;100434.22;4957348;28;20039;-79
2022/12/13 06:32:59;;;;;;;31.97;14.87;;;;;;;-2.40;100.00;100437.50;4943823;28;20048;-79
2022/12/13 06:35:26;;;;;;;25.80;13.73;;;;;;;-2.44;100.00;100446.88;4940955;28;20110;-80
2022/12/13 06:37:56;;;;;;;30.20;14.27;;;;;;;-2.43;100.00;100445.19;4939724;29;20126;-79
2022/12/13 06:40:31;;;;;;;28.70;15.07;;;;;;;-2.38;100.00;100448.78;4939822;29;20051;-78
2022/12/13 06:42:57;;;;;;;27.57;13.83;;;;;;;-2.41;100.00;100443.53;4966781;28;20051;-79
2022/12/13 06:45:24;;;;;;;26.27;14.87;;;;;;;-2.43;100.00;100440.91;4962326;28;20536;-80
2022/12/13 06:47:51;;;;;;;26.13;14.17;;;;;;;-2.22;100.00;100450.09;4970353;28;20046;-79
2022/12/13 06:50:18;;;;;;;28.67;14.47;;;;;;;-2.24;100.00;100449.16;4939227;29;20357;-79
2022/12/13 06:52:45;;;;;;;28.87;13.60;;;;;;;-2.38;100.00;100451.34;4941513;29;20035;-80
2022/12/13 06:55:12;;;;;;;28.30;14.03;;;;;;;-2.45;100.00;100463.22;4937708;29;20047;-79
2022/12/13 06:57:39;;;;;;;31.33;15.93;;;;;;;-2.45;100.00;100462.38;4947937;29;20054;-80
2022/12/13 07:00:08;;;;;;;26.60;13.33;;;;;;;-2.40;100.00;100450.44;4948242;28;20047;-82
2022/12/13 07:02:36;;;;;;;27.23;12.93;;;;;;;-2.38;100.00;100466.88;4950459;28;20043;-81
2022/12/13 07:05:04;;;;;;;25.07;13.23;;;;;;;-2.38;100.00;100456.53;4934119;29;20035;-81
2022/12/13 07:07:30;;;;;;;30.27;13.67;;;;;;;-2.39;100.00;100452.19;4934943;29;20039;-81
2022/12/13 07:09:57;;;;;;;31.47;14.10;;;;;;;-2.41;100.00;100457.34;4934639;28;20047;-81
2022/12/13 07:12:24;;;;;;;32.27;13.93;;;;;;;-2.42;100.00;100472.81;4946529;28;20043;-82
2022/12/13 07:14:50;;;;;;;32.83;14.33;;;;;;;-2.47;100.00;100464.03;4953852;29;20094;-81
2022/12/13 07:17:18;;;;;;;29.70;14.33;;;;;;;-2.46;100.00;100460.63;4945615;28;20039;-81
2022/12/13 07:20:06;;;;;;;30.20;14.73;;;;;;;-2.45;100.00;100468.41;4969858;28;20114;-82
2022/12/13 07:22:34;;;;;;;29.33;14.15;;;;;;;-2.44;100.00;100461.53;5063872;23;20499;-82
2022/12/13 07:25:07;;;;;;;30.10;14.63;;;;;;;-2.43;100.00;100464.19;4962344;28;20047;-80
2022/12/13 07:28:04;;;;;;;28.70;13.93;;;;;;;-2.43;100.00;100474.53;4971441;28;20046;-82
2022/12/13 07:30:33;;;;;;;33.07;15.80;;;;;;;-2.47;100.00;100474.38;4943782;28;20583;-81
2022/12/13 07:33:07;;;;;;;29.53;14.70;;;;;;;-2.47;100.00;100482.16;4954046;28;20065;-83
2022/12/13 07:35:34;;;;;;;33.73;16.37;;;;;;;-2.40;100.00;100473.72;4957194;29;20118;-82
2022/12/13 07:38:03;;;;;;;30.70;14.10;;;;;;;-2.37;100.00;100476.41;4940661;28;20051;-81
2022/12/13 07:40:32;;;;;;;28.27;14.57;;;;;;;-2.41;100.00;100490.97;4964734;28;20058;-82
2022/12/13 07:42:59;;;;;;;39.60;18.97;;;;;;;-2.35;100.00;100482.50;4958816;28;20042;-82
2022/12/13 07:45:26;;;;;;;34.90;16.60;;;;;;;-2.25;100.00;100492.28;4957084;29;20046;-82
2022/12/13 07:47:52;;;;;;;33.67;16.33;;;;;;;-2.31;100.00;100495.56;4941869;29;20119;-81
2022/12/13 07:50:20;;;;;;;29.33;15.33;;;;;;;-2.28;100.00;100484.41;4937823;29;20134;-82
2022/12/13 07:52:51;;;;;;;29.67;15.47;;;;;;;-2.25;100.00;100481.94;4940506;29;20074;-82
2022/12/13 07:55:20;;;;;;;27.93;14.43;;;;;;;-2.34;100.00;100484.25;4941894;29;20055;-83
2022/12/13 07:58:07;;;;;;;30.90;15.10;;;;;;;-2.36;100.00;100488.50;4958441;28;21235;-82
2022/12/13 08:00:35;;;;;;;34.80;16.73;;;;;;;-2.34;100.00;100492.03;4941997;29;20071;-82
2022/12/13 08:03:02;;;;;;;32.27;15.67;;;;;;;-2.33;100.00;100492.06;4946727;29;20040;-83
2022/12/13 08:05:29;;;;;;;32.30;15.47;;;;;;;-2.32;100.00;100488.63;4957271;28;20054;-82
2022/12/13 08:08:06;;;;;;;30.10;16.10;;;;;;;-2.25;100.00;100491.41;4940946;28;20054;-81
2022/12/13 08:10:34;;;;;;;30.67;15.13;;;;;;;-2.16;100.00;100486.50;4947003;29;20138;-82
2022/12/13 08:13:01;;;;;;;32.20;14.73;;;;;;;-2.05;100.00;100500.59;4942271;29;20055;-82
2022/12/13 08:15:28;;;;;;;33.90;16.33;;;;;;;-2.13;100.00;100496.91;4930899;28;20496;-82
2022/12/13 08:17:56;;;;;;;32.33;14.97;;;;;;;-2.15;100.00;100496.00;4942092;29;20051;-82
2022/12/13 08:20:22;;;;;;;28.80;13.40;;;;;;;-2.17;100.00;100500.25;4943453;29;20134;-83
2022/12/13 08:22:57;;;;;;;30.93;15.00;;;;;;;-2.12;100.00;100498.66;4910547;29;20043;-82
2022/12/13 08:25:29;;;;;;;35.43;16.53;;;;;;;-2.04;100.00;100503.22;4927542;29;20059;-82
2022/12/13 08:27:56;;;;;;;36.43;17.33;;;;;;;-2.14;100.00;100510.69;4941337;29;20055;-83
2022/12/13 08:30:30;;;;;;;31.30;16.20;;;;;;;-2.13;100.00;100510.72;4943564;29;20043;-82
2022/12/13 08:32:56;;;;;;;31.50;15.03;;;;;;;-2.10;100.00;100513.44;4939160;29;20036;-84
2022/12/13 08:35:27;;;;;;;31.37;16.20;;;;;;;-1.93;100.00;100516.47;4939691;29;20051;-82
2022/12/13 08:37:59;;;;;;;31.13;15.50;;;;;;;-1.96;100.00;100523.25;4949009;29;20138;-82
2022/12/13 08:40:26;;;;;;;30.17;14.53;;;;;;;-2.01;100.00;100517.97;4938800;28;20122;-83
2022/12/13 08:42:56;;;;;;;35.57;16.33;;;;;;;-2.02;100.00;100518.78;4944981;29;20496;-83
2022/12/13 08:45:23;;;;;;;37.73;16.07;;;;;;;-2.01;100.00;100517.97;4926432;29;20535;-82
2022/12/13 08:47:50;;;;;;;32.73;16.50;;;;;;;-1.90;100.00;100526.91;4956967;29;20501;-81
2022/12/13 08:50:17;;;;;;;33.77;15.63;;;;;;;-1.92;100.00;100526.00;4942177;29;20043;-82
2022/12/13 08:52:44;;;;;;;33.50;15.93;;;;;;;-1.86;100.00;100528.72;4930952;29;20039;-82
2022/12/13 08:55:12;;;;;;;34.43;14.27;;;;;;;-1.90;100.00;100526.03;4940936;29;20047;-82
2022/12/13 08:57:39;;;;;;;34.40;15.70;;;;;;;-1.85;100.00;100522.75;4943478;28;20046;-82
2022/12/13 09:00:10;;;;;;;33.80;15.97;;;;;;;-1.85;100.00;100527.94;4940046;29;20039;-82
2022/12/13 09:02:36;;;;;;;36.80;17.07;;;;;;;-1.77;100.00;100528.97;4964506;28;20039;-83
2022/12/13 09:05:06;;;;;;;37.03;17.80;;;;;;;-1.73;100.00;100530.84;4960216;28;20480;-83
2022/12/13 09:07:34;;;;;;;31.13;16.53;;;;;;;-1.66;100.00;100529.28;4922803;29;20055;-82
2022/12/13 09:10:05;;;;;;;34.30;15.97;;;;;;;-1.54;100.00;100532.19;4950978;28;20047;-81
2022/12/13 09:12:53;;;;;;;36.33;17.97;;;;;;;-1.67;100.00;100530.13;4939346;29;20049;-83
2022/12/13 09:15:31;;;;;;;33.90;16.90;;;;;;;-1.51;100.00;100526.22;4944230;28;20039;-83
2022/12/13 09:18:01;;;;;;;36.07;18.03;;;;;;;-1.68;100.00;100524.88;4940000;29;20107;-85
2022/12/13 09:20:34;;;;;;;31.50;15.83;;;;;;;-1.68;100.00;100527.47;4923761;29;20043;-85
2022/12/13 09:23:07;;;;;;;31.53;16.17;;;;;;;-1.77;100.00;100525.50;4965969;28;20039;-83
2022/12/13 09:25:39;;;;;;;27.90;14.73;;;;;;;-1.62;100.00;100533.69;4941013;28;20043;-83
2022/12/13 09:28:08;;;;;;;27.47;15.20;;;;;;;-1.60;100.00;100533.72;4938821;28;20046;-85
2022/12/13 09:30:36;;;;;;;31.83;15.73;;;;;;;-1.58;100.00;100526.91;4939108;29;20075;-84
2022/12/13 09:33:03;;;;;;;31.50;15.60;;;;;;;-1.55;100.00;100534.75;4940135;29;20050;-83
2022/12/13 09:35:53;;;;;;;34.40;15.67;;;;;;;-1.44;100.00;100535.88;4952407;29;20043;-83
2022/12/13 09:38:20;;;;;;;31.40;15.37;;;;;;;-1.54;100.00;100539.09;4955928;28;20043;-82
2022/12/13 09:40:48;;;;;;;32.30;15.87;;;;;;;-1.62;100.00;100538.00;4944612;29;20043;-83
2022/12/13 09:43:25;;;;;;;32.00;15.17;;;;;;;-1.65;100.00;100540.53;4945241;29;20436;-82
2022/12/13 09:45:59;;;;;;;32.00;14.63;;;;;;;-1.62;100.00;100544.06;4941100;29;20039;-83
2022/12/13 09:48:27;;;;;;;27.50;15.77;;;;;;;-1.48;100.00;100541.84;4954162;29;20035;-84
2022/12/13 09:51:00;;;;;;;52.77;26.00;;;;;;;-1.46;100.00;100538.44;4923657;29;20043;-84
2022/12/13 09:53:48;;;;;;;39.53;18.50;;;;;;;-1.42;100.00;100534.25;4943867;29;20071;-83
2022/12/13 09:56:20;;;;;;;31.77;15.80;;;;;;;-1.52;100.00;100535.69;4942547;29;20047;-82
2022/12/13 09:58:49;;;;;;;34.33;17.27;;;;;;;-1.50;100.00;100528.84;4947238;29;20567;-82
2022/12/13 10:01:16;;;;;;;31.63;15.93;;;;;;;-1.56;100.00;100531.28;4927100;29;20043;-82
2022/12/13 10:03:51;;;;;;;28.50;14.43;;;;;;;-1.56;100.00;100526.09;4950505;29;20055;-82
2022/12/13 10:06:20;;;;;;;30.67;16.80;;;;;;;-1.46;100.00;100527.22;4937360;29;20047;-82
2022/12/13 10:08:54;;;;;;;27.57;14.67;;;;;;;-1.33;100.00;100528.41;4943613;29;20047;-82
2022/12/13 10:11:25;;;;;;;27.43;13.83;;;;;;;-1.46;100.00;100525.50;4941271;29;20058;-82
2022/12/13 10:14:08;;;;;;;33.78;16.27;;;;;;;-1.40;100.00;100535.16;4941613;29;20039;-82
2022/12/13 10:16:35;;;;;;;29.23;16.77;;;;;;;-1.34;100.00;100526.66;4939780;29;20043;-83
2022/12/13 10:19:18;;;;;;;35.23;15.43;;;;;;;-1.32;100.00;100528.44;4954720;28;20039;-83
2022/12/13 10:21:56;;;;;;;31.73;14.60;;;;;;;-1.34;100.00;100521.47;4955449;29;20047;-83
2022/12/13 10:24:53;;;;;;;30.87;15.03;;;;;;;-1.26;100.00;100527.69;4940962;28;20057;-84
2022/12/13 10:27:26;;;;;;;30.37;15.93;;;;;;;-1.32;100.00;100520.66;4957388;29;20043;-82
2022/12/13 10:30:11;;;;;;;38.83;17.83;;;;;;;-1.24;100.00;100511.38;4960044;28;20051;-83
2022/12/13 10:32:53;;;;;;;31.47;15.57;;;;;;;-1.21;100.00;100516.63;4956874;28;20067;-81
2022/12/13 10:35:27;;;;;;;31.50;14.23;;;;;;;-1.10;100.00;100519.47;4957256;28;20544;-82
2022/12/13 10:37:57;;;;;;;24.02;13.68;;;;;;;-1.25;100.00;100511.34;4927044;29;20050;-82
2022/12/13 10:40:32;;;;;;;32.03;16.70;;;;;;;-1.11;100.00;100507.34;4938324;29;20059;-82
2022/12/13 10:43:20;;;;;;;40.20;19.17;;;;;;;-1.24;100.00;100519.16;4946935;28;20098;-82
2022/12/13 10:46:01;;;;;;;33.70;17.87;;;;;;;-1.01;100.00;100516.22;4941642;29;20134;-81
2022/12/13 10:48:35;;;;;;;30.77;15.93;;;;;;;-1.08;100.00;100506.56;4929536;29;20074;-82
2022/12/13 10:51:07;;;;;;;28.67;15.73;;;;;;;-1.18;100.00;100498.56;4944780;29;20106;-83
2022/12/13 10:53:38;;;;;;;30.37;14.67;;;;;;;-1.04;100.00;100495.41;4943945;29;20518;-82
2022/12/13 10:56:13;;;;;;;33.50;14.33;;;;;;;-1.07;100.00;100503.13;4954952;28;20043;-83
2022/12/13 10:58:51;;;;;;;29.53;13.50;;;;;;;-1.02;100.00;100517.94;4947012;29;20098;-82
2022/12/13 11:01:20;;;;;;;31.13;13.63;;;;;;;-1.07;100.00;100508.31;4940871;29;20055;-82
2022/12/13 11:04:02;;;;;;;29.90;14.57;;;;;;;-1.03;100.00;100504.94;4939407;29;20070;-83
2022/12/13 11:06:43;;;;;;;27.50;13.80;;;;;;;-0.91;100.00;100502.66;4956503;28;20098;-82
2022/12/13 11:09:29;;;;;;;30.87;14.87;;;;;;;-0.95;100.00;100504.28;4942046;29;20055;-82
2022/12/13 11:12:13;;;;;;;27.42;12.80;;;;;;;-0.97;100.00;100503.38;4938918;28;20053;-82
2022/12/13 11:15:05;;;;;;;26.50;13.33;;;;;;;-0.86;100.00;100509.69;4958174;28;20043;-82
2022/12/13 11:17:35;;;;;;;25.57;12.87;;;;;;;-0.78;100.00;100498.59;4967172;28;20043;-82
2022/12/13 11:20:14;;;;;;;29.30;12.70;;;;;;;-0.87;100.00;100500.16;4956295;29;20078;-82
2022/12/13 11:22:41;;;;;;;28.33;14.90;;;;;;;-0.86;100.00;100501.91;4957288;29;20087;-82
2022/12/13 11:25:16;;;;;;;27.43;13.07;;;;;;;-0.59;100.00;100501.66;4941370;29;20047;-81
2022/12/13 11:27:49;;;;;;;22.70;12.67;;;;;;;-0.71;100.00;100497.91;4941895;29;20051;-82